Main page
METAR-TAF:

METAR-TAF

Airports :

Istres-Le Tubé Air Base

Istres, France

latitude: 43-31N, longitude: 004-56E, elevation: 23 m

Current weather observation

The report was made 36 minutes ago, at 08:30 UTC
Wind 5 kt from the North, varying between North/Northwest and Northeast
Temperature 26°C
Humidity 48%
Pressure 1016 hPa
Visibility 10 km or more
no clouds below 1500 m and no cumulonimbus

METAR: LFMI 150830Z AUTO 01005KT 330V040 CAVOK 26/14 Q1016 NOSIG

Time: 11:06 (09:06 UTC)

Forecast

The report was made 1 hour and 6 minutes ago, at 08:00 UTC
Forecast valid from 15 at 09 UTC to 16 at 09 UTC
Wind 6 kt from the North/Northwest
Visibility 10 km or more
no clouds below 1500 m and no cumulonimbus
Becoming
from 15 at 21 UTC to 15 at 23 UTC
Wind 3 kt from variable directions

TAF: LFMI 150800Z 1509/1609 34006KT CAVOK BECMG 1521/1523 VRB03KT

Weather observations and forecasts of more than 4000 airports (METAR and TAF reports).

The available stations are represented by yellow and red dots on the map.

Hover mouse over dot to see the name of the station.

Then click to see weather observations and forecasts.

To change the map : click on the green buttons with a black cross to zoom in, on the green button with a dash to zoom out, or on the green arrows for adjacent maps.


METAR-TAF: